Time;durP1;ratioP1;P1;durP2;ratioP2;P2;SDS_P1;SDS_P2;PMS_P1;PMS_P2;Temp;Humidity;BMP_temperature;BMP_pressure;BME280_temperature;BME280_humidity;BME280_pressure;Samples;Min_cycle;Max_cycle;Signal;HPM_P1;HPM_P2
2022/03/13 00:02:04;;;;;;;;;14.50;12.50;;;;;10.66;68.69;100929.81;5029321;28;51373;-66
2022/03/13 00:04:30;;;;;;;;;7.00;7.00;;;;;10.58;68.39;100915.63;5029603;28;49718;-66
2022/03/13 00:06:56;;;;;;;;;7.25;6.25;;;;;10.60;68.81;100913.91;5029500;28;49739;-66
2022/03/13 00:09:22;;;;;;;;;8.50;8.50;;;;;10.69;68.43;100926.38;5029995;28;49955;-66
2022/03/13 00:11:53;;;;;;;;;7.50;7.50;;;;;10.70;68.58;100926.41;5031571;28;49807;-66
2022/03/13 00:14:20;;;;;;;;;10.00;10.00;;;;;10.57;68.02;100904.25;5033136;28;49649;-67
2022/03/13 00:16:46;;;;;;;;;15.00;11.50;;;;;10.73;67.79;100928.25;5015132;28;49739;-66
2022/03/13 00:19:11;;;;;;;;;10.75;9.00;;;;;10.75;67.44;100924.78;5015039;28;49668;-65
2022/03/13 00:21:39;;;;;;;;;8.75;8.75;;;;;10.67;67.49;100917.59;5032757;28;49848;-66
2022/03/13 00:24:06;;;;;;;;;8.00;8.00;;;;;10.72;67.40;100918.59;5032523;28;49726;-66
2022/03/13 00:26:35;;;;;;;;;8.25;8.00;;;;;10.78;66.48;100922.22;5026088;28;49837;-66
2022/03/13 00:29:00;;;;;;;;;12.75;9.00;;;;;10.79;67.36;100923.97;5032816;28;49658;-66
2022/03/13 00:31:26;;;;;;;;;8.50;8.50;;;;;10.54;67.35;100874.44;5032517;28;50347;-65
2022/03/13 00:33:51;;;;;;;;;12.25;10.00;;;;;10.83;66.62;100923.22;5032528;28;49730;-67
2022/03/13 00:36:16;;;;;;;;;9.00;9.00;;;;;10.73;66.45;100902.88;5032592;28;49814;-66
2022/03/13 00:38:42;;;;;;;;;10.00;10.00;;;;;10.81;66.97;100916.16;5032427;28;50170;-66
2022/03/13 00:41:08;;;;;;;;;10.50;10.50;;;;;10.89;66.82;100914.56;5032214;28;49895;-66
2022/03/13 00:43:33;;;;;;;;;13.00;8.50;;;;;10.90;66.94;100918.97;5032212;28;50126;-66
2022/03/13 00:45:59;;;;;;;;;8.00;7.00;;;;;10.84;65.90;100906.59;5032402;28;49843;-65
2022/03/13 00:48:26;;;;;;;;;7.00;6.75;;;;;10.77;65.58;100888.94;5032717;28;49762;-65
2022/03/13 00:50:51;;;;;;;;;9.25;9.00;;;;;10.92;65.82;100906.78;5031982;28;49771;-65
2022/03/13 00:53:16;;;;;;;;;10.50;9.25;;;;;10.87;65.85;100901.41;5032072;28;49758;-64
2022/03/13 00:55:42;;;;;;;;;13.25;9.25;;;;;10.91;64.93;100899.75;5032268;28;49684;-65
2022/03/13 00:58:08;;;;;;;;;12.50;10.00;;;;;10.77;65.50;100870.56;5032312;28;49908;-65
2022/03/13 01:00:34;;;;;;;;;9.25;7.75;;;;;10.94;65.05;100898.94;5031950;28;50933;-64
2022/03/13 01:02:59;;;;;;;;;8.50;7.75;;;;;10.96;64.75;100903.34;5031906;28;49672;-66
2022/03/13 01:05:27;;;;;;;;;4.75;4.75;;;;;10.96;65.42;100907.72;5032321;28;50363;-64
2022/03/13 01:07:54;;;;;;;;;6.25;5.75;;;;;10.95;65.48;100893.69;5032103;28;49702;-64
2022/03/13 01:10:20;;;;;;;;;9.00;9.00;;;;;10.98;65.00;100901.63;5031998;28;50712;-64
2022/03/13 01:12:48;;;;;;;;;6.75;6.75;;;;;10.95;64.98;100883.19;5032228;28;49894;-64
2022/03/13 01:15:14;;;;;;;;;5.75;4.50;;;;;11.03;64.66;100891.25;5032291;28;49913;-64
2022/03/13 01:17:40;;;;;;;;;7.00;6.50;;;;;10.90;63.98;100863.81;5031330;28;49878;-64
2022/03/13 01:20:15;;;;;;;;;8.25;7.50;;;;;10.98;64.40;100875.38;5013764;28;50456;-64
2022/03/13 01:22:40;;;;;;;;;4.25;4.25;;;;;11.03;63.36;100886.88;5031011;28;49776;-64
2022/03/13 01:25:06;;;;;;;;;7.50;7.00;;;;;11.04;63.31;100885.13;5031746;28;49751;-64
2022/03/13 01:27:31;;;;;;;;;7.25;6.00;;;;;11.01;63.36;100879.81;5031986;28;49701;-64
2022/03/13 01:29:57;;;;;;;;;8.25;6.25;;;;;10.60;63.33;100804.53;5031601;28;49787;-64
2022/03/13 01:32:23;;;;;;;;;5.00;5.00;;;;;11.03;63.43;100870.22;5031489;28;49847;-64
2022/03/13 01:34:51;;;;;;;;;8.50;6.25;;;;;11.05;63.06;100876.41;5031658;28;49781;-65
2022/03/13 01:37:30;;;;;;;;;7.25;6.50;;;;;10.99;63.49;100856.13;5031794;28;49780;-64
2022/03/13 01:39:58;;;;;;;;;4.75;4.75;;;;;10.99;62.88;100852.63;5031026;28;50530;-64
2022/03/13 01:42:24;;;;;;;;;8.00;6.50;;;;;11.04;62.45;100853.59;5031590;28;49867;-64
2022/03/13 01:44:49;;;;;;;;;8.75;6.75;;;;;11.06;62.37;100863.28;5031408;28;49707;-64
2022/03/13 01:47:15;;;;;;;;;5.50;5.50;;;;;10.92;63.16;100835.88;5031981;28;49916;-64
2022/03/13 01:49:40;;;;;;;;;6.00;6.00;;;;;11.01;62.48;100849.19;5031408;28;50060;-64
2022/03/13 01:52:06;;;;;;;;;6.25;4.50;;;;;11.13;62.36;100862.56;5031238;28;49865;-64
2022/03/13 01:54:31;;;;;;;;;9.75;6.50;;;;;11.15;61.94;100854.72;5030907;28;49681;-64
2022/03/13 01:56:57;;;;;;;;;7.00;6.50;;;;;11.00;61.40;100831.66;5031933;28;49738;-64
2022/03/13 01:59:23;;;;;;;;;6.00;5.50;;;;;11.16;61.91;100848.59;5031236;28;50256;-64
2022/03/13 02:01:48;;;;;;;;;4.25;3.25;;;;;10.98;61.89;100817.59;5031345;28;49764;-64
2022/03/13 02:04:22;;;;;;;;;5.00;5.00;;;;;11.06;61.42;100825.63;5031311;28;49912;-64
2022/03/13 02:06:47;;;;;;;;;7.25;7.00;;;;;10.81;61.77;100788.38;5031447;28;50058;-64
2022/03/13 02:09:12;;;;;;;;;7.00;7.00;;;;;11.09;61.23;100834.44;5030703;28;50891;-64
2022/03/13 02:11:38;;;;;;;;;3.00;3.00;;;;;11.11;61.14;100831.88;5030984;28;49809;-64
2022/03/13 02:14:05;;;;;;;;;5.25;5.25;;;;;10.70;60.93;100771.50;5030091;28;49919;-64
2022/03/13 02:16:31;;;;;;;;;6.50;4.00;;;;;11.01;61.39;100832.53;5031056;28;49590;-64
2022/03/13 02:18:57;;;;;;;;;6.00;4.25;;;;;10.97;61.51;100822.81;5030853;28;50160;-64
2022/03/13 02:21:27;;;;;;;;;5.25;5.25;;;;;10.50;61.63;100744.84;5031035;28;49812;-64
2022/03/13 02:23:55;;;;;;;;;6.00;6.00;;;;;10.86;61.90;100818.22;5030810;28;49729;-64
2022/03/13 02:26:20;;;;;;;;;4.00;4.00;;;;;10.86;62.12;100826.09;5031036;28;49725;-64
2022/03/13 02:28:52;;;;;;;;;8.50;7.00;;;;;10.82;61.75;100826.03;5030355;28;50251;-64
2022/03/13 02:31:25;;;;;;;;;10.00;8.00;;;;;10.79;62.21;100821.56;5030576;28;49726;-64
2022/03/13 02:33:53;;;;;;;;;6.50;6.50;;;;;10.72;62.19;100805.69;5030002;28;49765;-64
2022/03/13 02:36:42;;;;;;;;;8.00;5.25;;;;;10.70;62.11;100805.63;5030617;28;49871;-65
2022/03/13 02:39:09;;;;;;;;;7.25;6.25;;;;;10.61;62.10;100794.94;5024272;28;50604;-64
2022/03/13 02:41:35;;;;;;;;;5.00;5.00;;;;;10.38;62.59;100759.44;5012770;28;49932;-65
2022/03/13 02:44:01;;;;;;;;;6.50;6.50;;;;;10.58;62.18;100805.38;5030684;28;49899;-65
2022/03/13 02:46:48;;;;;;;;;7.00;5.75;;;;;10.55;62.97;100800.94;5030696;28;49733;-64
2022/03/13 02:49:18;;;;;;;;;4.00;3.25;;;;;10.44;62.43;100778.84;5030274;28;51075;-64
2022/03/13 02:51:45;;;;;;;;;7.00;5.75;;;;;10.41;62.90;100783.13;5030367;28;49746;-64
2022/03/13 02:54:11;;;;;;;;;9.75;7.00;;;;;10.45;63.32;100791.13;5030206;28;49856;-64
2022/03/13 02:56:37;;;;;;;;;7.25;6.75;;;;;10.38;62.53;100791.81;5030979;28;49855;-64
2022/03/13 02:59:02;;;;;;;;;7.25;7.25;;;;;10.40;63.37;100799.72;5030359;28;49829;-65
2022/03/13 03:01:28;;;;;;;;;2.00;1.25;;;;;10.37;62.43;100789.16;5030478;28;49736;-65
2022/03/13 03:03:57;;;;;;;;;4.75;4.75;;;;;10.32;63.19;100786.44;5012458;28;49710;-64
2022/03/13 03:06:24;;;;;;;;;7.00;5.25;;;;;10.10;63.27;100761.44;5030647;28;49923;-65
2022/03/13 03:08:51;;;;;;;;;7.75;7.25;;;;;10.29;62.84;100789.88;5029811;28;49733;-65
2022/03/13 03:11:16;;;;;;;;;5.50;4.50;;;;;9.93;62.84;100723.44;5011203;28;49824;-64
2022/03/13 03:13:42;;;;;;;;;8.50;6.50;;;;;10.23;63.17;100780.97;5012358;28;49822;-65
2022/03/13 03:16:07;;;;;;;;;8.75;6.75;;;;;10.04;63.68;100761.31;5030471;28;49775;-64
2022/03/13 03:18:33;;;;;;;;;7.00;6.25;;;;;10.16;63.74;100785.19;5029179;28;49800;-64
2022/03/13 03:20:58;;;;;;;;;6.00;6.00;;;;;10.13;63.39;100781.59;5030087;28;49705;-64
2022/03/13 03:23:24;;;;;;;;;6.75;4.00;;;;;10.11;62.98;100786.81;5029106;28;50078;-64
2022/03/13 03:25:49;;;;;;;;;7.50;5.25;;;;;10.10;63.63;100781.53;5030099;28;49757;-64
2022/03/13 03:28:17;;;;;;;;;5.50;5.50;;;;;10.09;62.88;100783.25;5029653;28;50285;-63
2022/03/13 03:30:42;;;;;;;;;8.25;7.00;;;;;10.07;63.49;100776.22;5030108;28;49622;-64
2022/03/13 03:33:09;;;;;;;;;6.00;6.00;;;;;10.06;62.69;100771.81;5029872;28;49865;-64
2022/03/13 03:35:34;;;;;;;;;9.50;6.50;;;;;9.96;62.99;100755.88;5023584;28;49682;-64
2022/03/13 03:38:01;;;;;;;;;8.75;8.00;;;;;10.04;63.08;100782.28;5029382;28;49784;-63
2022/03/13 03:40:31;;;;;;;;;3.50;3.50;;;;;10.03;62.74;100767.38;5029826;28;49928;-64
2022/03/13 03:43:04;;;;;;;;;10.25;6.50;;;;;10.00;62.93;100775.19;5028491;28;49814;-64
2022/03/13 03:45:31;;;;;;;;;6.00;4.25;;;;;9.97;63.22;100770.75;5030275;28;49844;-64
2022/03/13 03:47:57;;;;;;;;;4.00;4.00;;;;;9.81;62.99;100738.88;5033132;28;50348;-63
2022/03/13 03:50:23;;;;;;;;;7.50;7.50;;;;;9.97;62.65;100777.75;5026981;28;50046;-65
2022/03/13 03:52:50;;;;;;;;;7.50;7.25;;;;;9.94;62.67;100772.41;5032847;28;49599;-64
2022/03/13 03:55:16;;;;;;;;;2.25;2.25;;;;;9.82;63.12;100744.16;5033369;28;49660;-64
2022/03/13 03:57:41;;;;;;;;;7.75;4.00;;;;;9.86;63.02;100753.91;5032971;28;49707;-64
2022/03/13 04:00:08;;;;;;;;;7.25;6.50;;;;;9.84;62.69;100752.06;5033049;28;49816;-64
2022/03/13 04:02:33;;;;;;;;;7.75;6.50;;;;;9.92;62.17;100772.38;5033071;28;49909;-64
2022/03/13 04:05:00;;;;;;;;;6.50;6.00;;;;;9.85;62.47;100765.22;5033730;28;49769;-65
2022/03/13 04:07:25;;;;;;;;;7.25;7.25;;;;;9.91;62.79;100767.97;5032691;28;49807;-65
2022/03/13 04:09:51;;;;;;;;;6.00;5.25;;;;;9.90;62.24;100776.69;5032748;28;49749;-65
2022/03/13 04:12:17;;;;;;;;;6.50;6.00;;;;;9.80;62.96;100747.59;5033020;28;49688;-65
2022/03/13 04:14:42;;;;;;;;;5.75;5.75;;;;;9.93;61.56;100781.13;5032863;28;49763;-66
2022/03/13 04:17:08;;;;;;;;;8.50;7.75;;;;;9.65;62.12;100724.53;5032955;28;49739;-65
2022/03/13 04:19:33;;;;;;;;;6.75;6.75;;;;;9.96;62.33;100779.47;5014853;28;49711;-64
2022/03/13 04:21:58;;;;;;;;;7.75;7.75;;;;;9.83;62.77;100766.91;5032797;28;49628;-65
2022/03/13 04:24:24;;;;;;;;;8.75;7.75;;;;;9.86;61.84;100771.38;5032739;28;49671;-65
2022/03/13 04:26:50;;;;;;;;;8.50;7.50;;;;;9.95;62.08;100782.06;5032214;28;49784;-65
2022/03/13 04:29:17;;;;;;;;;7.00;7.00;;;;;9.86;62.05;100763.50;5032679;28;49769;-65
2022/03/13 04:31:43;;;;;;;;;7.75;7.75;;;;;9.84;62.07;100744.19;5032635;28;49862;-65
2022/03/13 04:34:09;;;;;;;;;6.00;6.00;;;;;10.00;61.63;100786.56;5032893;28;49808;-65
2022/03/13 04:36:37;;;;;;;;;6.75;6.00;;;;;9.95;61.93;100774.19;5032401;28;50756;-65
2022/03/13 04:39:04;;;;;;;;;5.50;5.50;;;;;9.75;61.89;100739.66;5032261;28;49604;-65
2022/03/13 04:41:30;;;;;;;;;7.00;6.00;;;;;10.01;62.41;100776.94;5032652;28;49829;-65
2022/03/13 04:43:55;;;;;;;;;7.50;7.00;;;;;10.01;62.01;100780.44;5032579;28;50072;-64
2022/03/13 04:46:21;;;;;;;;;8.25;7.25;;;;;9.99;61.68;100781.28;5032163;28;49881;-65
2022/03/13 04:48:47;;;;;;;;;3.25;3.00;;;;;9.90;61.19;100771.44;5032378;28;49783;-64
2022/03/13 04:51:12;;;;;;;;;4.00;4.00;;;;;9.99;61.66;100784.78;5026065;28;49842;-64
2022/03/13 04:53:38;;;;;;;;;8.50;6.00;;;;;10.02;61.13;100786.59;5032247;28;49889;-65
2022/03/13 04:56:04;;;;;;;;;8.00;8.00;;;;;9.84;61.22;100744.19;5030868;28;50529;-64
2022/03/13 04:58:31;;;;;;;;;4.25;4.00;;;;;10.06;61.09;100777.06;5031350;28;49813;-65
2022/03/13 05:00:56;;;;;;;;;4.00;4.00;;;;;9.96;60.56;100766.38;5032256;28;49875;-64
2022/03/13 05:03:22;;;;;;;;;5.75;4.00;;;;;10.07;61.35;100771.84;5032283;28;49854;-64
2022/03/13 05:05:48;;;;;;;;;6.25;4.50;;;;;10.03;60.78;100768.25;5031919;28;51258;-65
2022/03/13 05:08:15;;;;;;;;;5.00;3.50;;;;;9.80;60.19;100714.41;5031861;28;49621;-65
2022/03/13 05:10:43;;;;;;;;;8.25;7.25;;;;;9.82;60.93;100719.69;5032085;28;49811;-64
2022/03/13 05:13:13;;;;;;;;;4.50;3.50;;;;;10.15;60.26;100758.91;5032198;28;49774;-65
2022/03/13 05:15:39;;;;;;;;;6.75;5.00;;;;;10.06;59.91;100743.84;5031902;28;49885;-65
2022/03/13 05:18:05;;;;;;;;;6.00;6.00;;;;;9.89;60.16;100703.25;5031745;28;49887;-64
2022/03/13 05:20:31;;;;;;;;;3.25;2.00;;;;;9.99;60.10;100736.69;5031842;28;49710;-65
2022/03/13 05:22:57;;;;;;;;;2.00;2.00;;;;;9.65;60.09;100685.19;5031699;28;49830;-65
2022/03/13 05:25:24;;;;;;;;;4.00;3.50;;;;;10.04;59.92;100748.19;5031529;28;49875;-65
2022/03/13 05:27:50;;;;;;;;;3.25;3.00;;;;;10.11;59.69;100768.44;5031513;28;49627;-65
2022/03/13 05:30:16;;;;;;;;;6.50;4.25;;;;;10.05;60.19;100757.81;5032058;28;49690;-65
2022/03/13 05:32:41;;;;;;;;;3.00;3.00;;;;;10.08;59.18;100762.25;5031867;28;49700;-66
2022/03/13 05:35:07;;;;;;;;;8.00;3.25;;;;;9.76;59.81;100725.69;5031289;28;50208;-65
2022/03/13 05:37:32;;;;;;;;;4.00;4.00;;;;;10.05;59.88;100776.19;5031280;28;49803;-65
2022/03/13 05:39:58;;;;;;;;;8.00;3.00;;;;;10.00;59.73;100767.31;5031584;28;50438;-65
2022/03/13 05:42:25;;;;;;;;;3.50;3.25;;;;;10.08;59.88;100764.88;5031481;28;49717;-66
2022/03/13 05:44:52;;;;;;;;;7.00;4.00;;;;;10.07;59.44;100768.34;5031385;28;49804;-65
2022/03/13 05:47:18;;;;;;;;;7.50;5.50;;;;;9.82;59.48;100733.69;5031477;28;49741;-65
2022/03/13 05:49:44;;;;;;;;;3.75;3.75;;;;;9.84;59.13;100734.59;5031422;28;49875;-66
2022/03/13 05:52:11;;;;;;;;;3.00;2.00;;;;;10.03;59.01;100773.50;5031605;28;49710;-65
2022/03/13 05:54:37;;;;;;;;;5.50;2.25;;;;;9.60;59.39;100703.47;5030696;28;49929;-65
2022/03/13 05:57:04;;;;;;;;;3.50;3.50;;;;;9.97;59.23;100769.88;5031108;28;49943;-65
2022/03/13 05:59:29;;;;;;;;;2.25;2.25;;;;;9.57;59.22;100698.16;5031188;28;50159;-65
2022/03/13 06:01:54;;;;;;;;;2.00;2.00;;;;;9.81;59.69;100731.91;5030990;28;49864;-64
2022/03/13 06:04:19;;;;;;;;;3.50;3.50;;;;;10.08;59.37;100777.97;5030863;28;49770;-64
2022/03/13 06:06:45;;;;;;;;;3.75;3.75;;;;;10.06;59.29;100775.34;5031092;28;49773;-65
2022/03/13 06:09:10;;;;;;;;;4.00;4.00;;;;;9.96;59.30;100755.88;5030704;28;49815;-66
2022/03/13 06:11:36;;;;;;;;;7.00;5.50;;;;;10.11;59.35;100788.53;5031150;28;49658;-64
2022/03/13 06:14:01;;;;;;;;;3.25;2.00;;;;;10.12;58.80;100778.06;5030314;28;49985;-65
2022/03/13 06:16:26;;;;;;;;;1.75;1.75;;;;;10.00;59.03;100756.81;5030835;28;49753;-65
2022/03/13 06:18:52;;;;;;;;;4.00;4.00;;;;;10.13;59.08;100786.81;5030690;28;49845;-66
2022/03/13 06:21:17;;;;;;;;;2.00;2.00;;;;;9.98;58.56;100758.53;5031246;28;49834;-65
2022/03/13 06:23:42;;;;;;;;;3.75;3.75;;;;;10.12;58.75;100783.31;5030537;28;51385;-65
2022/03/13 06:26:09;;;;;;;;;3.00;3.00;;;;;9.95;58.94;100759.34;5031225;28;49999;-64
2022/03/13 06:28:34;;;;;;;;;2.00;2.00;;;;;10.14;59.22;100797.38;5030718;28;50521;-65
2022/03/13 06:31:00;;;;;;;;;3.00;3.00;;;;;10.11;58.06;100778.03;5030970;28;49860;-65
2022/03/13 06:33:27;;;;;;;;;3.00;2.00;;;;;9.74;58.67;100724.75;5030053;28;49754;-65
2022/03/13 06:35:52;;;;;;;;;3.00;3.00;;;;;10.17;58.34;100800.06;5030065;28;49892;-64
2022/03/13 06:38:17;;;;;;;;;3.00;3.00;;;;;9.85;57.84;100740.75;5029629;28;49812;-66
2022/03/13 06:40:43;;;;;;;;;2.25;2.25;;;;;10.19;57.76;100795.72;5030672;28;49276;-65
2022/03/13 06:43:08;;;;;;;;;3.00;3.00;;;;;10.19;58.37;100797.47;5028971;28;51523;-65
2022/03/13 06:45:34;;;;;;;;;3.75;3.50;;;;;9.89;57.51;100751.34;5030285;28;49860;-65
2022/03/13 06:47:59;;;;;;;;;2.00;2.00;;;;;10.23;58.43;100799.34;5030830;28;49941;-64
2022/03/13 06:50:25;;;;;;;;;2.75;2.75;;;;;10.03;57.64;100757.75;5030145;28;49995;-64
2022/03/13 06:52:53;;;;;;;;;2.00;2.00;;;;;10.06;58.14;100764.84;5029787;28;50254;-64
2022/03/13 06:55:22;;;;;;;;;2.00;2.00;;;;;10.25;57.80;100797.66;5030168;28;49680;-64
2022/03/13 06:57:49;;;;;;;;;2.75;1.75;;;;;10.28;57.50;100795.97;5030067;28;49955;-64
2022/03/13 07:00:15;;;;;;;;;2.75;2.00;;;;;10.34;57.51;100799.59;5031068;28;49098;-65
2022/03/13 07:02:41;;;;;;;;;2.25;2.25;;;;;10.35;56.87;100790.88;5030270;28;50681;-66
2022/03/13 07:05:07;;;;;;;;;1.25;1.25;;;;;10.38;57.05;100788.31;5029833;28;49765;-64
2022/03/13 07:07:32;;;;;;;;;2.00;2.00;;;;;10.43;56.76;100792.81;5027223;28;49713;-64
2022/03/13 07:09:58;;;;;;;;;4.75;2.00;;;;;10.48;56.18;100793.78;5029911;28;49810;-64
2022/03/13 07:12:24;;;;;;;;;3.00;1.25;;;;;10.38;56.59;100759.44;5029508;28;49891;-64
2022/03/13 07:14:50;;;;;;;;;2.75;2.00;;;;;10.60;56.40;100795.78;5029714;28;49980;-66
2022/03/13 07:17:16;;;;;;;;;1.75;1.75;;;;;10.60;56.17;100791.41;5030237;28;49622;-64
2022/03/13 07:19:44;;;;;;;;;0.50;0.50;;;;;10.68;56.22;100785.44;5030176;28;49694;-64
2022/03/13 07:22:11;;;;;;;;;1.00;1.00;;;;;10.64;55.52;100776.63;5011082;28;50956;-65
2022/03/13 07:24:37;;;;;;;;;1.00;1.00;;;;;10.67;55.19;100774.06;5029230;28;49928;-66
2022/03/13 07:27:03;;;;;;;;;1.75;1.75;;;;;10.62;55.02;100764.34;5029523;28;49875;-65
2022/03/13 07:29:28;;;;;;;;;1.00;1.00;;;;;10.74;55.64;100768.09;5029454;28;49857;-65
2022/03/13 07:31:56;;;;;;;;;1.50;1.25;;;;;10.82;55.60;100773.50;5029840;28;50370;-65
2022/03/13 07:34:22;;;;;;;;;4.00;3.00;;;;;10.90;55.30;100785.03;5029369;28;49849;-65
2022/03/13 07:36:48;;;;;;;;;2.00;2.00;;;;;10.96;54.74;100787.78;5029362;28;49887;-65
2022/03/13 07:39:14;;;;;;;;;2.00;2.00;;;;;11.00;55.35;100789.63;5030271;28;49697;-65
2022/03/13 07:41:39;;;;;;;;;2.00;2.00;;;;;10.99;54.79;100785.19;5029460;28;49970;-65
2022/03/13 07:44:04;;;;;;;;;2.00;2.00;;;;;10.67;54.67;100737.31;5029171;28;50336;-66
2022/03/13 07:46:30;;;;;;;;;1.75;1.75;;;;;10.79;54.53;100757.66;5029200;28;49867;-64
2022/03/13 07:48:56;;;;;;;;;3.00;3.00;;;;;11.00;54.45;100802.75;5011665;28;50026;-66
2022/03/13 07:51:21;;;;;;;;;1.75;1.75;;;;;11.07;54.53;100806.38;5028814;28;49606;-65
2022/03/13 07:53:46;;;;;;;;;2.00;0.75;;;;;10.91;54.08;100776.31;5029558;28;49611;-65
2022/03/13 07:56:12;;;;;;;;;3.00;3.00;;;;;11.08;54.55;100805.50;5029451;28;49666;-65
2022/03/13 07:58:37;;;;;;;;;1.00;1.00;;;;;11.07;54.36;100790.59;5030363;28;49945;-64
2022/03/13 08:01:02;;;;;;;;;2.50;2.50;;;;;11.02;54.13;100785.28;5028330;28;51075;-65
2022/03/13 08:03:34;;;;;;;;;3.00;2.00;;;;;10.96;53.47;100763.25;5028850;28;49653;-65
2022/03/13 08:06:00;;;;;;;;;1.00;1.00;;;;;11.25;53.32;100805.84;5029074;28;49707;-65
2022/03/13 08:08:25;;;;;;;;;1.25;1.25;;;;;11.19;53.34;100782.94;5028551;28;50519;-65
2022/03/13 08:10:50;;;;;;;;;1.25;1.00;;;;;11.39;53.52;100793.84;5028500;28;49853;-65
2022/03/13 08:13:16;;;;;;;;;4.25;2.50;;;;;11.49;53.35;100789.66;5028431;28;49884;-64
2022/03/13 08:15:41;;;;;;;;;3.00;3.00;;;;;11.54;52.88;100790.59;5029274;28;49619;-65
2022/03/13 08:18:09;;;;;;;;;1.75;1.75;;;;;11.50;52.51;100775.66;5029318;28;49784;-65
2022/03/13 08:20:35;;;;;;;;;1.00;1.00;;;;;11.57;53.08;100782.75;5028135;28;49742;-65
2022/03/13 08:23:00;;;;;;;;;2.00;2.00;;;;;11.70;52.70;100790.00;5028320;28;49867;-64
2022/03/13 08:25:26;;;;;;;;;3.00;3.00;;;;;11.78;52.35;100804.19;5028675;28;50156;-65
2022/03/13 08:27:51;;;;;;;;;4.50;3.00;;;;;11.73;51.73;100782.16;5028894;28;50025;-65
2022/03/13 08:30:17;;;;;;;;;1.25;1.25;;;;;11.88;51.83;100785.09;5028638;28;49741;-64
2022/03/13 08:32:42;;;;;;;;;3.50;2.50;;;;;11.73;52.12;100763.75;5029605;28;49812;-65
2022/03/13 08:35:09;;;;;;;;;2.25;2.25;;;;;11.96;52.24;100777.28;5032446;28;50265;-64
2022/03/13 08:37:35;;;;;;;;;2.00;2.00;;;;;12.09;51.85;100781.88;5032161;28;49889;-65
2022/03/13 08:40:03;;;;;;;;;2.00;2.00;;;;;12.05;51.00;100751.13;5031772;28;50879;-65
2022/03/13 08:42:28;;;;;;;;;2.50;2.50;;;;;11.71;50.88;100691.84;5026013;28;49945;-66
2022/03/13 08:44:54;;;;;;;;;3.00;2.00;;;;;12.46;50.64;100777.16;5031319;28;49808;-64
2022/03/13 08:47:19;;;;;;;;;3.25;2.25;;;;;12.29;50.61;100735.69;5032401;28;49805;-65
2022/03/13 08:49:44;;;;;;;;;2.50;2.50;;;;;12.52;50.25;100766.69;5030862;28;50327;-64
2022/03/13 08:52:10;;;;;;;;;3.00;3.00;;;;;12.64;50.05;100769.47;5030358;28;49803;-65
2022/03/13 08:54:35;;;;;;;;;2.00;1.00;;;;;12.43;50.33;100741.13;5031941;28;49913;-64
2022/03/13 08:57:02;;;;;;;;;2.00;2.00;;;;;12.76;49.56;100781.91;5032375;28;49554;-64
2022/03/13 08:59:29;;;;;;;;;2.00;2.00;;;;;12.65;49.61;100747.56;5031096;28;49977;-65
2022/03/13 09:01:54;;;;;;;;;2.00;2.00;;;;;13.00;49.25;100771.66;5030590;28;50025;-65
2022/03/13 09:04:20;;;;;;;;;2.00;2.00;;;;;13.06;48.67;100766.47;5031308;28;49693;-64
2022/03/13 09:06:46;;;;;;;;;2.00;2.00;;;;;13.26;48.38;100773.72;5032246;28;49944;-65
2022/03/13 09:09:12;;;;;;;;;1.50;1.50;;;;;13.39;48.31;100781.75;5031793;28;50332;-65
2022/03/13 09:11:38;;;;;;;;;1.50;1.50;;;;;13.54;48.03;100773.13;5032067;28;49821;-65
2022/03/13 09:14:04;;;;;;;;;1.75;1.75;;;;;13.62;48.04;100775.81;5031487;28;49761;-65
2022/03/13 09:16:32;;;;;;;;;1.75;1.75;;;;;13.80;47.46;100782.97;5031969;28;49729;-66
2022/03/13 09:18:58;;;;;;;;;1.50;1.50;;;;;13.68;47.70;100749.47;5031355;28;50458;-70
2022/03/13 09:21:24;;;;;;;;;4.00;2.75;;;;;13.57;47.13;100714.22;5031852;28;49725;-66
2022/03/13 09:23:49;;;;;;;;;2.00;2.00;;;;;14.12;46.43;100783.25;5013654;28;50454;-62
2022/03/13 09:26:15;;;;;;;;;2.00;2.00;;;;;14.18;46.29;100767.41;5032159;28;49907;-64
2022/03/13 09:28:40;;;;;;;;;1.75;1.75;;;;;14.31;45.44;100770.16;5031199;28;49681;-62
2022/03/13 09:31:06;;;;;;;;;3.00;2.00;;;;;14.48;45.70;100778.22;5031512;28;49825;-61
2022/03/13 09:33:31;;;;;;;;;2.00;2.00;;;;;14.75;46.14;100785.38;5031272;28;49744;-61
2022/03/13 09:35:57;;;;;;;;;2.00;2.00;;;;;14.84;45.30;100787.16;5031600;28;49776;-62
2022/03/13 09:38:22;;;;;;;;;1.00;1.00;;;;;14.85;44.78;100789.81;5031070;28;50380;-64
2022/03/13 09:40:48;;;;;;;;;1.50;1.50;;;;;14.94;44.66;100782.78;5031437;28;49785;-60
2022/03/13 09:43:13;;;;;;;;;1.00;1.00;;;;;14.88;44.72;100762.53;5031290;28;50294;-66
2022/03/13 09:45:38;;;;;;;;;1.25;1.25;;;;;15.08;44.85;100789.03;5031648;28;49806;-64
2022/03/13 09:48:10;;;;;;;;;2.00;2.00;;;;;15.15;44.64;100794.34;5031209;28;49741;-66
2022/03/13 09:50:35;;;;;;;;;1.00;1.00;;;;;14.98;43.71;100774.00;5031281;28;49846;-64
2022/03/13 09:53:01;;;;;;;;;2.75;2.75;;;;;15.02;44.21;100800.44;5030918;28;50144;-63
2022/03/13 09:55:27;;;;;;;;;2.00;2.00;;;;;14.77;44.04;100778.34;5031418;28;49848;-60
2022/03/13 09:57:52;;;;;;;;;1.25;1.25;;;;;14.58;46.66;100758.00;5031480;28;50451;-67
2022/03/13 10:00:22;;;;;;;;;3.00;3.00;;;;;14.50;46.20;100744.75;5031276;28;49846;-67
2022/03/13 10:02:48;;;;;;;;;1.50;1.50;;;;;14.68;45.90;100796.81;5013565;28;49746;-69
2022/03/13 10:05:20;;;;;;;;;1.50;1.50;;;;;14.47;46.08;100797.56;5031317;28;49857;-67
2022/03/13 10:07:51;;;;;;;;;1.50;1.00;;;;;14.42;46.45;100798.38;5024629;28;49652;-65
2022/03/13 10:10:16;;;;;;;;;3.00;2.00;;;;;14.34;46.36;100803.63;5024964;28;49718;-66
2022/03/13 10:12:42;;;;;;;;;2.00;2.00;;;;;14.23;47.12;100785.06;5030697;28;50408;-65
2022/03/13 10:15:08;;;;;;;;;4.75;2.00;;;;;14.41;47.09;100801.91;5031746;28;49935;-67
2022/03/13 10:17:35;;;;;;;;;3.00;2.00;;;;;14.46;47.39;100792.28;5030857;28;50336;-68
2022/03/13 10:20:16;;;;;;;;;1.00;1.00;;;;;14.50;47.18;100797.59;5030929;28;49697;-67
2022/03/13 10:22:44;;;;;;;;;1.50;1.50;;;;;14.56;47.67;100796.72;5030710;28;49844;-66
2022/03/13 10:25:13;;;;;;;;;2.00;1.00;;;;;14.60;46.59;100796.75;5012783;28;49935;-63
2022/03/13 10:27:38;;;;;;;;;2.50;1.75;;;;;14.64;47.03;100788.84;5030200;28;50690;-65
2022/03/13 10:30:07;;;;;;;;;1.50;1.50;;;;;14.70;47.00;100784.47;5030449;28;49678;-63
2022/03/13 10:32:33;;;;;;;;;1.50;1.50;;;;;14.44;47.84;100738.53;5030524;28;49756;-67
2022/03/13 10:34:58;;;;;;;;;2.75;2.00;;;;;14.62;47.78;100770.34;5030846;28;50050;-65
2022/03/13 10:37:34;;;;;;;;;2.00;2.00;;;;;14.97;48.50;100777.53;5030155;28;49915;-65
2022/03/13 10:40:22;;;;;;;;;3.25;1.50;;;;;15.04;48.73;100763.44;5030368;28;49859;-64
2022/03/13 10:42:50;;;;;;;;;2.50;2.50;;;;;15.17;48.18;100765.25;5030111;28;49734;-63
2022/03/13 10:45:34;;;;;;;;;1.00;1.00;;;;;15.17;47.98;100765.25;5030367;28;49930;-63
2022/03/13 10:48:21;;;;;;;;;2.00;2.00;;;;;15.32;47.34;100780.25;5029921;28;49803;-62
2022/03/13 10:50:50;;;;;;;;;2.00;1.00;;;;;14.38;46.86;100591.50;5012181;28;49837;-63
2022/03/13 10:53:18;;;;;;;;;2.00;2.00;;;;;15.41;46.75;100774.97;5029413;28;49907;-62
2022/03/13 10:55:44;;;;;;;;;2.00;2.00;;;;;14.47;46.23;100591.53;5009599;28;50078;-62
2022/03/13 10:58:16;;;;;;;;;2.00;2.00;;;;;15.47;46.44;100769.69;5009811;28;52532;-64
2022/03/13 11:00:45;;;;;;;;;1.00;1.00;;;;;13.72;46.20;100495.38;5010469;28;50015;-64
2022/03/13 11:03:14;;;;;;;;;1.25;1.25;;;;;14.95;46.08;100697.31;5028722;28;50008;-65
2022/03/13 11:05:40;;;;;;;;;2.00;2.00;;;;;14.90;46.27;100694.69;5029253;28;50010;-66
2022/03/13 11:08:07;;;;;;;;;2.00;2.00;;;;;14.76;45.57;100656.75;5028752;28;50195;-64
2022/03/13 11:10:35;;;;;;;;;2.00;2.00;;;;;15.46;45.32;100763.53;5029894;28;49946;-64
2022/03/13 11:13:03;;;;;;;;;3.00;3.00;;;;;14.85;44.67;100636.50;5029897;28;49810;-64
2022/03/13 11:15:31;;;;;;;;;4.00;4.00;;;;;15.31;45.21;100722.94;5030274;28;49709;-65
2022/03/13 11:17:59;;;;;;;;;2.00;2.00;;;;;15.26;44.83;100717.66;5029832;28;49931;-64
2022/03/13 11:20:25;;;;;;;;;3.00;3.00;;;;;14.57;44.68;100624.13;5030362;28;49986;-64
2022/03/13 11:22:50;;;;;;;;;4.00;4.00;;;;;14.92;45.54;100678.81;5029464;28;49892;-64
2022/03/13 11:25:17;;;;;;;;;4.00;4.00;;;;;15.49;45.47;100769.69;5029984;28;49778;-77